WZZ4D1 EBBR-ELLX
Flight info
| Callsign | WZZ4D1 |
|---|---|
| Flight time | 0h 25m |
| Altitude | 17000 |
| Route | LNO |
| Aircraft | A20N/M-V/N |
Departure
| Time | 2026-05-04 20:13 |
|---|---|
| Airport | Brussels Airport (EBBR) |
Arrival
| Time | 2026-05-04 20:38 |
|---|---|
| Airport | Luxembourg-Findel International Airport (ELLX) |
| Time | Latitude | Longitude | Altitude | Speed | Heading |
|---|---|---|---|---|---|
| 2026-05-04 20:03 | 50.90398 | 4.48990 | 130 ft | 0 kts | 336° |
| 2026-05-04 20:06 | 50.90396 | 4.48991 | 131 ft | 2 kts | 336° |
| 2026-05-04 20:06 | 50.90383 | 4.49001 | 131 ft | 2 kts | 336° |
| 2026-05-04 20:07 | 50.90369 | 4.49011 | 132 ft | 2 kts | 336° |
| 2026-05-04 20:07 | 50.90355 | 4.49020 | 133 ft | 2 kts | 336° |
| 2026-05-04 20:07 | 50.90342 | 4.49030 | 134 ft | 2 kts | 336° |
| 2026-05-04 20:07 | 50.90329 | 4.49039 | 135 ft | 1 kts | 359° |
| 2026-05-04 20:08 | 50.90317 | 4.49031 | 135 ft | 1 kts | 52° |
| 2026-05-04 20:08 | 50.90315 | 4.49023 | 135 ft | 1 kts | 73° |
| 2026-05-04 20:08 | 50.90313 | 4.49016 | 135 ft | 0 kts | 67° |
| 2026-05-04 20:10 | 50.90316 | 4.49026 | 135 ft | 1 kts | 67° |
| 2026-05-04 20:10 | 50.90328 | 4.49068 | 136 ft | 7 kts | 66° |
| 2026-05-04 20:10 | 50.90356 | 4.49168 | 138 ft | 12 kts | 64° |
| 2026-05-04 20:10 | 50.90419 | 4.49374 | 136 ft | 24 kts | 67° |
| 2026-05-04 20:11 | 50.90551 | 4.49517 | 128 ft | 25 kts | 12° |
| 2026-05-04 20:11 | 50.90728 | 4.49584 | 118 ft | 27 kts | 15° |
| 2026-05-04 20:11 | 50.90903 | 4.49701 | 111 ft | 27 kts | 63° |
| 2026-05-04 20:11 | 50.91035 | 4.49906 | 106 ft | 23 kts | 31° |
| 2026-05-04 20:12 | 50.91135 | 4.49936 | 104 ft | 12 kts | 319° |
| 2026-05-04 20:12 | 50.91124 | 4.49817 | 105 ft | 17 kts | 246° |
| 2026-05-04 20:12 | 50.90955 | 4.49243 | 109 ft | 95 kts | 245° |
| 2026-05-04 20:12 | 50.90586 | 4.47964 | 109 ft | 158 kts | 245° |
| 2026-05-04 20:13 | 50.90084 | 4.46262 | 593 ft | 173 kts | 245° |
| 2026-05-04 20:13 | 50.89590 | 4.44580 | 1392 ft | 171 kts | 247° |
| 2026-05-04 20:13 | 50.89100 | 4.42889 | 2105 ft | 175 kts | 248° |
| 2026-05-04 20:13 | 50.88578 | 4.41068 | 2590 ft | 190 kts | 248° |
| 2026-05-04 20:14 | 50.88012 | 4.39095 | 3067 ft | 207 kts | 247° |
| 2026-05-04 20:14 | 50.87377 | 4.36902 | 3483 ft | 231 kts | 247° |
| 2026-05-04 20:14 | 50.86681 | 4.34509 | 4033 ft | 249 kts | 246° |
| 2026-05-04 20:14 | 50.85857 | 4.32017 | 4588 ft | 269 kts | 232° |
| 2026-05-04 20:15 | 50.84335 | 4.30253 | 5288 ft | 281 kts | 196° |
| 2026-05-04 20:15 | 50.82442 | 4.30125 | 6204 ft | 280 kts | 162° |
| 2026-05-04 20:15 | 50.80781 | 4.31616 | 7137 ft | 278 kts | 131° |
| 2026-05-04 20:15 | 50.79755 | 4.34177 | 8046 ft | 278 kts | 110° |
| 2026-05-04 20:16 | 50.79124 | 4.37011 | 8918 ft | 281 kts | 104° |
| 2026-05-04 20:16 | 50.78613 | 4.39979 | 9791 ft | 285 kts | 102° |
| 2026-05-04 20:16 | 50.78136 | 4.43045 | 10595 ft | 292 kts | 101° |
| 2026-05-04 20:16 | 50.77650 | 4.46283 | 11105 ft | 310 kts | 101° |
| 2026-05-04 20:17 | 50.77146 | 4.49655 | 11551 ft | 328 kts | 101° |
| 2026-05-04 20:17 | 50.76606 | 4.53262 | 11961 ft | 347 kts | 101° |
| 2026-05-04 20:17 | 50.76037 | 4.57046 | 12324 ft | 365 kts | 102° |
| 2026-05-04 20:17 | 50.75432 | 4.61045 | 12641 ft | 383 kts | 102° |
| 2026-05-04 20:18 | 50.74802 | 4.65214 | 12939 ft | 399 kts | 102° |
| 2026-05-04 20:18 | 50.74154 | 4.69571 | 13434 ft | 409 kts | 102° |
| 2026-05-04 20:18 | 50.73507 | 4.73933 | 14113 ft | 413 kts | 102° |
| 2026-05-04 20:18 | 50.72851 | 4.78344 | 14804 ft | 416 kts | 102° |
| 2026-05-04 20:19 | 50.72187 | 4.82795 | 15470 ft | 419 kts | 102° |
| 2026-05-04 20:19 | 50.71514 | 4.87284 | 16131 ft | 422 kts | 102° |
| 2026-05-04 20:19 | 50.70838 | 4.91772 | 16664 ft | 426 kts | 102° |
| 2026-05-04 20:19 | 50.70154 | 4.96310 | 16926 ft | 427 kts | 103° |
| 2026-05-04 20:20 | 50.69455 | 5.00892 | 16950 ft | 426 kts | 104° |
| 2026-05-04 20:20 | 50.68355 | 5.05157 | 16937 ft | 427 kts | 122° |
| 2026-05-04 20:20 | 50.66322 | 5.08581 | 16950 ft | 428 kts | 140° |
| 2026-05-04 20:20 | 50.63978 | 5.11473 | 16956 ft | 427 kts | 141° |
| 2026-05-04 20:21 | 50.61669 | 5.14391 | 16945 ft | 427 kts | 140° |
| 2026-05-04 20:21 | 50.59372 | 5.17361 | 16949 ft | 427 kts | 140° |
| 2026-05-04 20:21 | 50.54847 | 5.23303 | 16947 ft | 427 kts | 141° |
| 2026-05-04 20:22 | 50.52584 | 5.26306 | 16949 ft | 426 kts | 141° |
| 2026-05-04 20:22 | 50.50297 | 5.29329 | 16948 ft | 426 kts | 141° |
| 2026-05-04 20:22 | 50.48056 | 5.32295 | 16961 ft | 426 kts | 141° |
| 2026-05-04 20:22 | 50.45775 | 5.35310 | 16953 ft | 426 kts | 141° |
| 2026-05-04 20:23 | 50.43539 | 5.38266 | 16964 ft | 426 kts | 141° |
| 2026-05-04 20:23 | 50.41275 | 5.41260 | 16953 ft | 426 kts | 141° |
| 2026-05-04 20:23 | 50.38994 | 5.44273 | 16950 ft | 425 kts | 141° |
| 2026-05-04 20:23 | 50.36737 | 5.47248 | 16962 ft | 425 kts | 141° |
| 2026-05-04 20:24 | 50.34477 | 5.50226 | 16612 ft | 426 kts | 141° |
| 2026-05-04 20:24 | 50.32233 | 5.53179 | 16021 ft | 420 kts | 141° |
| 2026-05-04 20:24 | 50.30024 | 5.56082 | 15394 ft | 416 kts | 141° |
| 2026-05-04 20:24 | 50.27835 | 5.58957 | 14722 ft | 412 kts | 141° |
| 2026-05-04 20:25 | 50.25666 | 5.61803 | 14030 ft | 408 kts | 141° |
| 2026-05-04 20:25 | 50.23491 | 5.64653 | 13344 ft | 405 kts | 142° |
| 2026-05-04 20:25 | 50.21364 | 5.67434 | 12649 ft | 402 kts | 142° |
| 2026-05-04 20:25 | 50.19235 | 5.70215 | 12179 ft | 392 kts | 142° |
| 2026-05-04 20:26 | 50.17182 | 5.72893 | 11762 ft | 381 kts | 142° |
| 2026-05-04 20:26 | 50.15166 | 5.75520 | 11464 ft | 368 kts | 143° |
| 2026-05-04 20:26 | 50.13252 | 5.78014 | 11135 ft | 357 kts | 142° |
| 2026-05-04 20:26 | 50.11357 | 5.80483 | 10935 ft | 343 kts | 143° |
| 2026-05-04 20:27 | 50.09577 | 5.82800 | 10744 ft | 331 kts | 143° |
| 2026-05-04 20:27 | 50.07833 | 5.85065 | 10554 ft | 318 kts | 143° |
| 2026-05-04 20:27 | 50.06175 | 5.87215 | 10381 ft | 307 kts | 143° |
| 2026-05-04 20:27 | 50.04559 | 5.89310 | 10182 ft | 297 kts | 143° |
| 2026-05-04 20:28 | 50.03009 | 5.91314 | 10045 ft | 285 kts | 144° |
| 2026-05-04 20:28 | 50.01509 | 5.93253 | 9900 ft | 275 kts | 144° |
| 2026-05-04 20:28 | 50.00034 | 5.95154 | 9552 ft | 274 kts | 144° |
| 2026-05-04 20:28 | 49.98582 | 5.97023 | 9225 ft | 271 kts | 144° |
| 2026-05-04 20:29 | 49.97143 | 5.98876 | 8886 ft | 270 kts | 144° |
| 2026-05-04 20:29 | 49.95693 | 6.00742 | 8549 ft | 268 kts | 143° |
| 2026-05-04 20:29 | 49.94279 | 6.02561 | 8222 ft | 266 kts | 143° |
| 2026-05-04 20:29 | 49.92867 | 6.04378 | 7890 ft | 264 kts | 143° |
| 2026-05-04 20:30 | 49.91445 | 6.06205 | 7559 ft | 263 kts | 143° |
| 2026-05-04 20:30 | 49.90055 | 6.07988 | 7233 ft | 261 kts | 143° |
| 2026-05-04 20:30 | 49.88648 | 6.09795 | 6908 ft | 260 kts | 143° |
| 2026-05-04 20:30 | 49.87267 | 6.11573 | 6585 ft | 259 kts | 141° |
| 2026-05-04 20:31 | 49.86061 | 6.13650 | 6249 ft | 261 kts | 127° |
| 2026-05-04 20:31 | 49.85202 | 6.16136 | 5928 ft | 262 kts | 117° |
| 2026-05-04 20:31 | 49.84472 | 6.18727 | 5603 ft | 261 kts | 116° |
| 2026-05-04 20:31 | 49.83768 | 6.21281 | 5293 ft | 259 kts | 116° |
| 2026-05-04 20:32 | 49.83058 | 6.23835 | 4991 ft | 258 kts | 116° |
| 2026-05-04 20:32 | 49.82342 | 6.26382 | 4680 ft | 257 kts | 116° |
| 2026-05-04 20:32 | 49.81628 | 6.28906 | 4466 ft | 251 kts | 116° |
| 2026-05-04 20:32 | 49.80954 | 6.31289 | 4439 ft | 236 kts | 117° |
| 2026-05-04 20:33 | 49.80315 | 6.33545 | 4415 ft | 223 kts | 117° |
| 2026-05-04 20:33 | 49.79699 | 6.35709 | 4381 ft | 222 kts | 117° |
| 2026-05-04 20:33 | 49.79066 | 6.37887 | 4329 ft | 221 kts | 121° |
| 2026-05-04 20:33 | 49.78075 | 6.39626 | 4190 ft | 213 kts | 152° |
| 2026-05-04 20:34 | 49.76785 | 6.40700 | 4078 ft | 212 kts | 154° |
| 2026-05-04 20:34 | 49.75480 | 6.41799 | 3906 ft | 213 kts | 154° |
| 2026-05-04 20:34 | 49.74182 | 6.42917 | 3552 ft | 216 kts | 153° |
| 2026-05-04 20:34 | 49.72804 | 6.43711 | 3240 ft | 212 kts | 179° |
| 2026-05-04 20:35 | 49.71404 | 6.43169 | 3023 ft | 204 kts | 212° |
| 2026-05-04 20:35 | 49.70367 | 6.41708 | 3009 ft | 206 kts | 229° |
| 2026-05-04 20:35 | 49.69559 | 6.39879 | 3008 ft | 207 kts | 238° |
| 2026-05-04 20:35 | 49.68869 | 6.37945 | 3000 ft | 201 kts | 239° |
| 2026-05-04 20:36 | 49.68219 | 6.36112 | 2967 ft | 189 kts | 239° |
| 2026-05-04 20:36 | 49.67580 | 6.34374 | 2852 ft | 180 kts | 237° |
| 2026-05-04 20:36 | 49.66956 | 6.32709 | 2586 ft | 177 kts | 237° |
| 2026-05-04 20:36 | 49.66351 | 6.31099 | 2361 ft | 166 kts | 237° |
| 2026-05-04 20:37 | 49.65808 | 6.29648 | 2117 ft | 149 kts | 238° |
| 2026-05-04 20:37 | 49.65313 | 6.28317 | 1901 ft | 135 kts | 237° |
| 2026-05-04 20:37 | 49.64849 | 6.27078 | 1742 ft | 133 kts | 237° |
| 2026-05-04 20:37 | 49.64391 | 6.25847 | 1567 ft | 132 kts | 236° |
| 2026-05-04 20:38 | 49.63935 | 6.24626 | 1397 ft | 132 kts | 238° |
| 2026-05-04 20:38 | 49.63485 | 6.23410 | 1218 ft | 130 kts | 238° |
| 2026-05-04 20:38 | 49.63095 | 6.22374 | 1203 ft | 89 kts | 239° |
| 2026-05-04 20:38 | 49.62871 | 6.21766 | 1213 ft | 47 kts | 239° |
| 2026-05-04 20:39 | 49.62717 | 6.21357 | 1220 ft | 36 kts | 249° |
| 2026-05-04 20:39 | 49.62671 | 6.21123 | 1226 ft | 15 kts | 272° |
| 2026-05-04 20:39 | 49.62706 | 6.21145 | 1227 ft | 7 kts | 19° |
| 2026-05-04 20:39 | 49.62772 | 6.21202 | 1228 ft | 19 kts | 36° |
| 2026-05-04 20:40 | 49.62907 | 6.21330 | 1228 ft | 22 kts | 26° |
| 2026-05-04 20:40 | 49.63021 | 6.21469 | 1227 ft | 21 kts | 64° |
| 2026-05-04 20:40 | 49.63088 | 6.21680 | 1225 ft | 22 kts | 65° |
| 2026-05-04 20:40 | 49.63159 | 6.21758 | 1225 ft | 7 kts | 337° |
| 2026-05-04 20:41 | 49.63194 | 6.21780 | 1226 ft | 6 kts | 58° |
| 2026-05-04 20:41 | 49.63201 | 6.21800 | 1225 ft | 0 kts | 62° |
| 2026-05-04 20:48 | 49.63206 | 6.21814 | 1225 ft | 3 kts | 62° |
| 2026-05-04 20:48 | 49.63216 | 6.21866 | 1224 ft | 7 kts | 105° |
| 2026-05-04 20:48 | 49.63178 | 6.21957 | 1220 ft | 13 kts | 83° |
| 2026-05-04 20:48 | 49.63224 | 6.22117 | 1216 ft | 19 kts | 63° |
| 2026-05-04 20:49 | 49.63298 | 6.22352 | 1208 ft | 28 kts | 63° |
| 2026-05-04 20:49 | 49.63397 | 6.22645 | 1205 ft | 31 kts | 59° |
| 2026-05-04 20:49 | 49.63496 | 6.22923 | 1211 ft | 28 kts | 63° |
| 2026-05-04 20:49 | 49.63589 | 6.23160 | 1217 ft | 23 kts | 60° |
| 2026-05-04 20:50 | 49.63664 | 6.23367 | 1218 ft | 18 kts | 66° |
| 2026-05-04 20:50 | 49.63591 | 6.23496 | 1216 ft | 18 kts | 153° |
| 2026-05-04 20:50 | 49.63504 | 6.23470 | 1216 ft | 14 kts | 238° |
| 2026-05-04 20:50 | 49.63380 | 6.23141 | 1213 ft | 72 kts | 241° |
| 2026-05-04 20:51 | 49.63010 | 6.22144 | 1210 ft | 140 kts | 240° |
| 2026-05-04 20:51 | 49.62465 | 6.20705 | 1599 ft | 161 kts | 238° |
| 2026-05-04 20:51 | 49.61921 | 6.19261 | 2410 ft | 156 kts | 237° |
| 2026-05-04 20:51 | 49.61401 | 6.17818 | 3143 ft | 157 kts | 238° |
| 2026-05-04 20:52 | 49.60831 | 6.16290 | 3628 ft | 172 kts | 238° |
| 2026-05-04 20:52 | 49.60210 | 6.14635 | 4095 ft | 189 kts | 238° |
| 2026-05-04 20:52 | 49.59527 | 6.12808 | 4538 ft | 210 kts | 238° |
| 2026-05-04 20:52 | 49.58754 | 6.10739 | 5018 ft | 232 kts | 238° |
| 2026-05-04 20:53 | 49.57929 | 6.08523 | 5596 ft | 250 kts | 238° |
| 2026-05-04 20:53 | 49.57050 | 6.06150 | 6261 ft | 264 kts | 240° |
| 2026-05-04 20:53 | 49.56528 | 6.03439 | 7118 ft | 274 kts | 266° |
| 2026-05-04 20:53 | 49.56923 | 6.00542 | 8088 ft | 283 kts | 292° |
| 2026-05-04 20:54 | 49.57837 | 5.97889 | 9003 ft | 287 kts | 295° |
| 2026-05-04 20:54 | 49.58781 | 5.95195 | 9919 ft | 291 kts | 294° |
| 2026-05-04 20:54 | 49.59726 | 5.92410 | 10698 ft | 299 kts | 291° |
| 2026-05-04 20:54 | 49.60411 | 5.89351 | 11194 ft | 313 kts | 279° |
| 2026-05-04 20:55 | 49.60682 | 5.85929 | 11664 ft | 328 kts | 269° |
| 2026-05-04 20:55 | 49.60720 | 5.82352 | 12090 ft | 345 kts | 268° |
| 2026-05-04 20:55 | 49.60724 | 5.78578 | 12455 ft | 364 kts | 268° |
| 2026-05-04 20:55 | 49.60737 | 5.74564 | 12785 ft | 382 kts | 268° |
| 2026-05-04 20:56 | 49.60757 | 5.70383 | 13095 ft | 398 kts | 269° |
| 2026-05-04 20:56 | 49.60782 | 5.66083 | 13623 ft | 406 kts | 269° |
| 2026-05-04 20:56 | 49.60810 | 5.61752 | 14310 ft | 410 kts | 269° |
| 2026-05-04 20:56 | 49.60767 | 5.57332 | 15004 ft | 412 kts | 266° |
| 2026-05-04 20:57 | 49.60595 | 5.52909 | 15651 ft | 416 kts | 265° |
| 2026-05-04 20:57 | 49.60401 | 5.48505 | 16262 ft | 420 kts | 265° |
| 2026-05-04 20:57 | 49.60199 | 5.44026 | 16853 ft | 424 kts | 265° |
| 2026-05-04 20:57 | 49.59992 | 5.39481 | 17446 ft | 427 kts | 265° |
| 2026-05-04 20:58 | 49.59779 | 5.34901 | 18018 ft | 430 kts | 264° |
| 2026-05-04 20:58 | 49.59563 | 5.30280 | 18581 ft | 434 kts | 264° |
| 2026-05-04 20:58 | 49.59345 | 5.25673 | 18906 ft | 435 kts | 264° |
| 2026-05-04 20:58 | 49.59184 | 5.21020 | 18956 ft | 435 kts | 266° |
| 2026-05-04 20:59 | 49.59175 | 5.16330 | 18959 ft | 436 kts | 269° |
| 2026-05-04 20:59 | 49.59213 | 5.11684 | 18962 ft | 436 kts | 269° |
| 2026-05-04 20:59 | 49.59256 | 5.07005 | 18958 ft | 436 kts | 269° |
| 2026-05-04 20:59 | 49.59298 | 5.02370 | 18961 ft | 436 kts | 269° |
| 2026-05-04 21:00 | 49.59336 | 4.97690 | 18962 ft | 436 kts | 269° |
| 2026-05-04 21:00 | 49.59374 | 4.93015 | 18954 ft | 437 kts | 269° |
| 2026-05-04 21:00 | 49.59407 | 4.88372 | 18956 ft | 437 kts | 269° |
| 2026-05-04 21:00 | 49.59438 | 4.83712 | 18953 ft | 434 kts | 269° |
| 2026-05-04 21:01 | 49.59468 | 4.79190 | 18952 ft | 413 kts | 269° |
| 2026-05-04 21:01 | 49.59494 | 4.74840 | 18953 ft | 393 kts | 269° |
| 2026-05-04 21:01 | 49.59517 | 4.70711 | 18951 ft | 387 kts | 269° |
| 2026-05-04 21:01 | 49.59537 | 4.66556 | 18953 ft | 387 kts | 269° |
| 2026-05-04 21:02 | 49.59554 | 4.62450 | 18953 ft | 387 kts | 269° |
| 2026-05-04 21:02 | 49.59570 | 4.58308 | 18950 ft | 387 kts | 269° |
| 2026-05-04 21:02 | 49.59586 | 4.54160 | 18952 ft | 387 kts | 269° |
| 2026-05-04 21:02 | 49.59602 | 4.50035 | 18951 ft | 387 kts | 269° |
| 2026-05-04 21:03 | 49.59615 | 4.45910 | 18952 ft | 387 kts | 269° |
| 2026-05-04 21:03 | 49.59627 | 4.41784 | 18953 ft | 387 kts | 269° |
| 2026-05-04 21:03 | 49.59638 | 4.37638 | 18952 ft | 387 kts | 269° |
| 2026-05-04 21:03 | 49.59647 | 4.33480 | 18956 ft | 387 kts | 268° |
| 2026-05-04 21:04 | 49.59654 | 4.29342 | 18954 ft | 387 kts | 268° |
| 2026-05-04 21:04 | 49.59660 | 4.25242 | 18953 ft | 388 kts | 268° |
| 2026-05-04 21:04 | 49.59664 | 4.21051 | 18952 ft | 388 kts | 268° |
| 2026-05-04 21:04 | 49.59667 | 4.16949 | 18953 ft | 387 kts | 268° |
| 2026-05-04 21:05 | 49.59657 | 4.12782 | 18949 ft | 387 kts | 266° |
| 2026-05-04 21:05 | 49.59321 | 4.08690 | 18950 ft | 385 kts | 256° |
| 2026-05-04 21:05 | 49.58530 | 4.04774 | 18949 ft | 384 kts | 246° |
| 2026-05-04 21:05 | 49.57315 | 4.01119 | 18953 ft | 383 kts | 238° |
| 2026-05-04 21:06 | 49.55891 | 3.97674 | 18947 ft | 384 kts | 236° |
| 2026-05-04 21:06 | 49.54437 | 3.94258 | 18948 ft | 384 kts | 236° |
| 2026-05-04 21:06 | 49.52969 | 3.90812 | 18946 ft | 384 kts | 236° |
| 2026-05-04 21:06 | 49.51521 | 3.87397 | 18947 ft | 384 kts | 236° |
| 2026-05-04 21:07 | 49.50058 | 3.83940 | 18944 ft | 384 kts | 236° |
| 2026-05-04 21:07 | 49.48647 | 3.80484 | 18951 ft | 385 kts | 240° |
| 2026-05-04 21:07 | 49.47488 | 3.76810 | 18937 ft | 385 kts | 247° |
| 2026-05-04 21:07 | 49.46625 | 3.72942 | 18662 ft | 380 kts | 253° |
| 2026-05-04 21:08 | 49.45955 | 3.69058 | 18019 ft | 380 kts | 255° |
| 2026-05-04 21:08 | 49.45305 | 3.65102 | 17369 ft | 380 kts | 255° |
| 2026-05-04 21:08 | 49.44664 | 3.61215 | 16790 ft | 378 kts | 255° |
| 2026-05-04 21:08 | 49.44008 | 3.57306 | 16217 ft | 376 kts | 254° |
| 2026-05-04 21:09 | 49.43357 | 3.53464 | 15904 ft | 368 kts | 254° |
| 2026-05-04 21:09 | 49.42720 | 3.49716 | 15698 ft | 365 kts | 254° |
| 2026-05-04 21:09 | 49.42032 | 3.45990 | 15097 ft | 366 kts | 251° |
| 2026-05-04 21:09 | 49.41183 | 3.42336 | 14736 ft | 367 kts | 248° |
| 2026-05-04 21:10 | 49.40214 | 3.38683 | 14755 ft | 371 kts | 247° |
| 2026-05-04 21:10 | 49.39232 | 3.35013 | 14778 ft | 372 kts | 247° |
| 2026-05-04 21:10 | 49.38254 | 3.31364 | 14802 ft | 372 kts | 246° |
| 2026-05-04 21:10 | 49.37271 | 3.27705 | 14825 ft | 372 kts | 246° |
| 2026-05-04 21:11 | 49.36283 | 3.24026 | 14848 ft | 372 kts | 246° |
| 2026-05-04 21:11 | 49.35303 | 3.20388 | 14873 ft | 372 kts | 246° |
| 2026-05-04 21:11 | 49.34323 | 3.16751 | 14896 ft | 372 kts | 246° |
| 2026-05-04 21:11 | 49.33335 | 3.13088 | 14918 ft | 373 kts | 246° |
| 2026-05-04 21:12 | 49.32348 | 3.09437 | 14931 ft | 373 kts | 246° |
| 2026-05-04 21:12 | 49.31348 | 3.05743 | 14935 ft | 374 kts | 246° |
| 2026-05-04 21:12 | 49.30352 | 3.02070 | 14935 ft | 374 kts | 246° |
| 2026-05-04 21:12 | 49.29350 | 2.98385 | 14930 ft | 375 kts | 246° |
| 2026-05-04 21:13 | 49.28358 | 2.94737 | 14910 ft | 375 kts | 246° |
| 2026-05-04 21:13 | 49.27351 | 2.91042 | 14554 ft | 376 kts | 246° |
| 2026-05-04 21:13 | 49.26347 | 2.87361 | 13928 ft | 376 kts | 246° |
| 2026-05-04 21:13 | 49.25348 | 2.83704 | 13345 ft | 374 kts | 246° |
| 2026-05-04 21:14 | 49.24350 | 2.80055 | 12792 ft | 371 kts | 246° |
| 2026-05-04 21:14 | 49.23354 | 2.76420 | 12225 ft | 369 kts | 246° |
| 2026-05-04 21:14 | 49.22377 | 2.72866 | 11808 ft | 362 kts | 246° |
| 2026-05-04 21:14 | 49.21413 | 2.69353 | 11547 ft | 351 kts | 246° |
| 2026-05-04 21:15 | 49.20491 | 2.66003 | 11384 ft | 337 kts | 246° |
| 2026-05-04 21:15 | 49.19598 | 2.62764 | 11208 ft | 325 kts | 246° |
| 2026-05-04 21:15 | 49.18736 | 2.59624 | 11053 ft | 314 kts | 249° |
| 2026-05-04 21:15 | 49.18153 | 2.56473 | 10904 ft | 304 kts | 260° |
| 2026-05-04 21:16 | 49.17954 | 2.53281 | 10512 ft | 303 kts | 268° |